createdAt,value
2023-03-03T12:47:55.487Z,952.11
2023-03-03T12:48:55.079Z,951.47
2023-03-03T12:50:06.646Z,951.70
2023-03-03T12:50:55.065Z,952.06
2023-03-03T12:51:55.109Z,951.93
2023-03-03T12:53:01.851Z,952.45
2023-03-03T12:54:01.283Z,952.13
2023-03-03T12:54:55.411Z,952.36
2023-03-03T12:55:55.269Z,952.55
2023-03-03T12:57:00.858Z,952.75
2023-03-03T12:57:55.232Z,952.62
2023-03-03T12:58:55.302Z,952.40
2023-03-03T12:59:55.236Z,952.56
2023-03-03T13:00:57.309Z,952.44
2023-03-03T13:01:55.213Z,953.18
2023-03-03T13:02:55.243Z,952.93
2023-03-03T13:03:58.421Z,953.08
2023-03-03T13:04:55.231Z,953.00
2023-03-03T13:05:58.189Z,952.57
2023-03-03T13:06:55.405Z,952.13
2023-03-03T13:07:55.281Z,952.71
2023-03-03T13:08:55.308Z,952.89
2023-03-03T13:09:55.234Z,953.34
2023-03-03T13:10:55.302Z,952.84
2023-03-03T13:11:55.248Z,953.10
2023-03-03T13:12:55.265Z,952.95
2023-03-03T13:13:55.292Z,952.94
2023-03-03T13:14:55.353Z,952.83
2023-03-03T13:15:56.478Z,952.61
2023-03-03T13:16:55.299Z,952.95
2023-03-03T13:17:55.252Z,953.01
2023-03-03T13:18:55.241Z,952.90
2023-03-03T13:19:55.293Z,953.14
2023-03-03T13:20:55.237Z,953.10
2023-03-03T13:21:55.747Z,953.22
2023-03-03T13:22:55.310Z,953.37
2023-03-03T13:23:55.268Z,953.53
2023-03-03T13:24:55.349Z,953.72
2023-03-03T13:25:55.380Z,954.05
2023-03-03T13:26:57.945Z,953.82
2023-03-03T13:27:55.343Z,953.44
2023-03-03T13:28:55.266Z,953.95
2023-03-03T13:29:55.266Z,953.27
2023-03-03T13:30:57.363Z,954.07
2023-03-03T13:31:55.773Z,954.07
2023-03-03T13:32:55.294Z,953.83
2023-03-03T13:33:55.371Z,953.65
2023-03-03T13:34:55.314Z,954.35
2023-03-03T13:36:00.700Z,953.58
2023-03-03T13:36:58.835Z,953.61
2023-03-03T13:37:58.075Z,953.84
2023-03-03T13:38:57.605Z,953.69
2023-03-03T13:39:58.397Z,953.86
2023-03-03T13:40:55.383Z,953.75
2023-03-03T13:42:01.428Z,954.17
2023-03-03T13:42:55.319Z,954.05
2023-03-03T13:44:02.826Z,953.79
2023-03-03T13:44:55.470Z,953.45
2023-03-03T13:45:55.403Z,953.82
2023-03-03T13:46:55.527Z,953.89
2023-03-03T13:47:55.494Z,954.02
2023-03-03T13:48:55.713Z,954.15
2023-03-03T13:49:58.516Z,954.24
2023-03-03T13:50:55.579Z,954.17
2023-03-03T13:51:55.675Z,954.09
2023-03-03T13:52:55.727Z,954.14
2023-03-03T13:53:55.566Z,954.29
2023-03-03T13:54:55.587Z,953.64
2023-03-03T13:55:55.710Z,953.31
2023-03-03T13:56:55.718Z,953.87
2023-03-03T13:57:55.678Z,953.75
2023-03-03T13:58:59.978Z,953.75
2023-03-03T13:59:57.824Z,953.83
2023-03-03T14:00:55.854Z,953.36
2023-03-03T14:01:55.572Z,953.80
2023-03-03T14:02:55.698Z,953.80
2023-03-03T14:03:55.709Z,953.91
2023-03-03T14:04:55.675Z,954.20
2023-03-03T14:05:55.620Z,953.32
2023-03-03T14:06:55.683Z,953.75
2023-03-03T14:07:55.656Z,953.93
2023-03-03T14:08:55.684Z,953.97
2023-03-03T14:09:55.738Z,953.64
2023-03-03T14:10:55.716Z,953.61
2023-03-03T14:11:58.836Z,953.28
2023-03-03T14:12:58.744Z,953.33
2023-03-03T14:13:55.853Z,953.72
2023-03-03T14:14:55.910Z,954.14
2023-03-03T14:15:57.110Z,953.68
2023-03-03T14:16:56.308Z,953.51
2023-03-03T14:17:56.041Z,953.37
2023-03-03T14:18:55.791Z,953.56
2023-03-03T14:19:55.782Z,953.50
2023-03-03T14:20:55.822Z,953.98
2023-03-03T14:21:55.796Z,954.09
2023-03-03T14:22:55.821Z,953.81
2023-03-03T14:23:55.896Z,953.82
2023-03-03T14:24:55.887Z,953.50
2023-03-03T14:25:55.834Z,953.71
2023-03-03T14:26:56.116Z,953.98
2023-03-03T14:27:55.837Z,954.07
2023-03-03T14:28:55.857Z,953.68
2023-03-03T14:29:55.860Z,954.47
2023-03-03T14:30:55.971Z,954.30
2023-03-03T14:31:55.838Z,954.33
2023-03-03T14:32:55.853Z,953.97
2023-03-03T14:33:55.883Z,953.96
2023-03-03T14:34:55.899Z,953.59
2023-03-03T14:35:55.854Z,953.50
2023-03-03T14:36:55.871Z,954.27
2023-03-03T14:37:55.801Z,954.06
2023-03-03T14:38:55.856Z,954.50
2023-03-03T14:39:55.814Z,954.58
2023-03-03T14:40:55.859Z,954.10
2023-03-03T14:41:56.137Z,954.38
2023-03-03T14:42:55.862Z,954.15
2023-03-03T14:43:55.786Z,954.33
2023-03-03T14:44:55.929Z,954.28
2023-03-03T14:45:55.916Z,954.34
2023-03-03T14:46:55.824Z,953.83
2023-03-03T14:47:55.870Z,953.86
2023-03-03T14:48:56.021Z,954.14
2023-03-03T14:49:55.883Z,953.98
2023-03-03T14:50:55.925Z,954.00
2023-03-03T14:51:55.834Z,954.06
2023-03-03T14:52:55.944Z,953.92
2023-03-03T14:53:55.840Z,954.19
2023-03-03T14:54:55.929Z,954.53
2023-03-03T14:55:55.857Z,953.98
2023-03-03T14:56:55.885Z,954.08
2023-03-03T14:57:55.882Z,954.26
2023-03-03T14:58:55.846Z,953.78
2023-03-03T14:59:55.916Z,954.26
2023-03-03T15:00:55.910Z,954.79
2023-03-03T15:01:55.917Z,954.17
2023-03-03T15:02:56.024Z,954.16
2023-03-03T15:03:55.991Z,954.59
2023-03-03T15:04:56.080Z,954.36
2023-03-03T15:05:56.006Z,954.29
2023-03-03T15:06:55.975Z,954.56
2023-03-03T15:07:56.217Z,954.35
2023-03-03T15:08:56.135Z,954.32
2023-03-03T15:09:56.125Z,954.23
2023-03-03T15:10:56.110Z,954.36
2023-03-03T15:11:56.250Z,954.67
2023-03-03T15:12:56.196Z,954.80
2023-03-03T15:13:56.153Z,954.48
2023-03-03T15:14:56.265Z,954.76
2023-03-03T15:15:56.384Z,954.23
2023-03-03T15:16:56.369Z,954.55
2023-03-03T15:17:56.372Z,954.82
2023-03-03T15:18:56.331Z,955.20
2023-03-03T15:19:56.348Z,954.85
2023-03-03T15:20:56.381Z,954.90
2023-03-03T15:21:56.410Z,954.27
2023-03-03T15:22:56.431Z,954.09
2023-03-03T15:23:56.434Z,954.21
2023-03-03T15:24:56.557Z,954.68
2023-03-03T15:25:58.714Z,954.94
2023-03-03T15:26:56.661Z,954.41
2023-03-03T15:27:56.657Z,954.74
2023-03-03T15:28:56.688Z,954.55
2023-03-03T15:29:56.740Z,954.92
2023-03-03T15:30:56.794Z,954.62
2023-03-03T15:31:56.798Z,955.05
2023-03-03T15:32:56.890Z,954.89
2023-03-03T15:33:56.769Z,955.05
2023-03-03T15:34:56.807Z,955.13
2023-03-03T15:35:56.840Z,954.94
2023-03-03T15:36:57.456Z,954.86
2023-03-03T15:37:56.808Z,954.98
2023-03-03T15:38:56.936Z,955.34
2023-03-03T15:39:56.930Z,955.54
2023-03-03T15:40:56.910Z,955.39
2023-03-03T15:41:56.969Z,955.28
2023-03-03T15:42:56.908Z,955.51
2023-03-03T15:43:57.043Z,955.10
2023-03-03T15:44:57.144Z,955.45
2023-03-03T15:45:57.192Z,955.28
2023-03-03T15:46:57.104Z,955.50
2023-03-03T15:47:57.131Z,955.04
2023-03-03T15:48:57.190Z,955.16
2023-03-03T15:49:57.137Z,955.51
2023-03-03T15:50:57.261Z,955.44
2023-03-03T15:52:03.403Z,955.03
2023-03-03T15:52:57.292Z,955.05
2023-03-03T15:53:57.282Z,955.47
2023-03-03T15:54:57.283Z,954.97
2023-03-03T15:55:57.325Z,955.14
2023-03-03T15:56:58.348Z,955.13
2023-03-03T15:57:57.316Z,954.89
2023-03-03T15:58:57.315Z,955.38
2023-03-03T15:59:57.309Z,955.40
2023-03-03T16:00:57.216Z,955.18
2023-03-03T16:01:57.747Z,955.19
2023-03-03T16:02:58.909Z,955.16
2023-03-03T16:03:57.308Z,955.60
2023-03-03T16:04:57.312Z,955.09
2023-03-03T16:05:57.304Z,955.62
2023-03-03T16:06:57.359Z,955.74
2023-03-03T16:07:57.397Z,955.71
2023-03-03T16:08:57.310Z,955.75
2023-03-03T16:09:57.390Z,955.87
2023-03-03T16:10:57.456Z,955.80
2023-03-03T16:11:57.913Z,955.85
2023-03-03T16:12:57.389Z,955.90
2023-03-03T16:13:57.517Z,955.86
2023-03-03T16:14:57.549Z,956.15
2023-03-03T16:15:57.616Z,955.46
2023-03-03T16:16:57.530Z,955.52
2023-03-03T16:17:57.606Z,955.77
2023-03-03T16:18:58.549Z,956.04
2023-03-03T16:19:57.579Z,956.07
2023-03-03T16:20:57.686Z,956.05
2023-03-03T16:21:57.853Z,956.38
2023-03-03T16:22:57.607Z,956.16
2023-03-03T16:23:57.721Z,956.22
2023-03-03T16:24:57.899Z,956.38
2023-03-03T16:25:57.824Z,956.30
2023-03-03T16:26:57.871Z,956.34
2023-03-03T16:27:57.898Z,956.40
2023-03-03T16:28:58.013Z,956.41
2023-03-03T16:29:57.824Z,956.50
2023-03-03T16:30:57.932Z,956.56
2023-03-03T16:31:58.056Z,956.57
2023-03-03T16:32:57.992Z,956.82
2023-03-03T16:33:58.046Z,956.80
2023-03-03T16:34:58.052Z,956.73
2023-03-03T16:35:58.021Z,956.77
2023-03-03T16:36:58.127Z,956.64
2023-03-03T16:37:58.095Z,956.70
2023-03-03T16:38:58.079Z,956.65
2023-03-03T16:39:58.158Z,956.85
2023-03-03T16:40:58.285Z,956.71
2023-03-03T16:41:58.309Z,956.86
2023-03-03T16:42:58.227Z,956.96
2023-03-03T16:43:58.269Z,957.09
2023-03-03T16:44:58.274Z,956.95
2023-03-03T16:45:58.399Z,956.89
2023-03-03T16:46:58.361Z,956.97
2023-03-03T16:47:58.461Z,957.08
2023-03-03T16:48:58.356Z,957.15
2023-03-03T16:49:58.308Z,957.09
2023-03-03T16:50:58.417Z,957.33
2023-03-03T16:51:58.440Z,957.17
2023-03-03T16:52:58.432Z,957.18
2023-03-03T16:53:58.480Z,956.97
2023-03-03T16:54:58.547Z,957.05
2023-03-03T16:55:58.430Z,957.03
2023-03-03T16:56:58.623Z,957.07
2023-03-03T16:57:58.673Z,957.06
2023-03-03T16:58:58.758Z,956.90
2023-03-03T16:59:58.682Z,957.04
2023-03-03T17:00:58.670Z,957.10
2023-03-03T17:01:58.682Z,957.04
2023-03-03T17:02:58.707Z,956.99
2023-03-03T17:03:58.733Z,956.98
2023-03-03T17:04:58.925Z,957.12
2023-03-03T17:05:58.760Z,957.02
2023-03-03T17:06:58.855Z,957.17
2023-03-03T17:07:58.786Z,957.15
2023-03-03T17:08:58.815Z,957.17
2023-03-03T17:09:58.816Z,957.23
2023-03-03T17:10:58.907Z,957.17
2023-03-03T17:11:58.934Z,957.07
2023-03-03T17:12:58.962Z,957.19
2023-03-03T17:13:59.069Z,957.23
2023-03-03T17:14:58.962Z,957.25
2023-03-03T17:15:58.971Z,957.31
2023-03-03T17:17:01.363Z,957.34
2023-03-03T17:17:59.080Z,957.26
2023-03-03T17:18:59.508Z,957.41
2023-03-03T17:19:59.157Z,957.56
2023-03-03T17:20:59.201Z,957.59
2023-03-03T17:21:59.285Z,957.60
2023-03-03T17:22:59.187Z,957.61
2023-03-03T17:23:59.224Z,957.63
2023-03-03T17:24:59.230Z,957.59
2023-03-03T17:25:59.315Z,957.62
2023-03-03T17:26:59.516Z,957.60
2023-03-03T17:27:59.365Z,957.82
2023-03-03T17:28:59.424Z,957.99
2023-03-03T17:29:59.400Z,957.94
2023-03-03T17:30:59.441Z,958.06
2023-03-03T17:31:59.682Z,957.95
2023-03-03T17:32:59.494Z,958.06
2023-03-03T17:33:59.466Z,958.26
2023-03-03T17:34:59.534Z,958.33
2023-03-03T17:35:59.598Z,958.39
2023-03-03T17:36:59.615Z,958.33
2023-03-03T17:37:59.641Z,958.34
2023-03-03T17:38:59.604Z,958.37
2023-03-03T17:40:01.856Z,958.39
2023-03-03T17:40:59.688Z,958.46
2023-03-03T17:42:00.234Z,958.46
2023-03-03T17:42:59.750Z,958.43
2023-03-03T17:44:01.428Z,958.67
2023-03-03T17:44:59.766Z,958.66
2023-03-03T17:45:59.858Z,958.71
2023-03-03T17:47:03.486Z,958.78
2023-03-03T17:48:02.836Z,958.80
2023-03-03T17:48:59.789Z,958.69
2023-03-03T17:49:59.900Z,958.84
2023-03-03T17:50:59.864Z,958.83
2023-03-03T17:51:59.829Z,959.07
2023-03-03T17:52:59.849Z,959.15
2023-03-03T17:53:59.909Z,959.17
2023-03-03T17:54:59.762Z,959.14
2023-03-03T17:56:21.583Z,959.15
2023-03-03T17:57:00.106Z,959.13
2023-03-03T17:58:05.796Z,959.19
2023-03-03T17:58:59.904Z,959.16
2023-03-03T18:00:08.864Z,959.29
2023-03-03T18:01:18.194Z,959.41
2023-03-03T18:01:59.962Z,959.33
2023-03-03T18:03:00.223Z,959.40
2023-03-03T18:04:00.093Z,959.48
2023-03-03T18:04:59.900Z,959.41
2023-03-03T18:05:59.904Z,959.62
2023-03-03T18:07:03.317Z,959.56
2023-03-03T18:08:00.025Z,959.67
2023-03-03T18:09:13.244Z,959.62
2023-03-03T18:09:59.937Z,959.56
2023-03-03T18:10:59.939Z,959.59
2023-03-03T18:11:59.881Z,959.66
2023-03-03T18:13:00.023Z,959.57
2023-03-03T18:14:02.008Z,959.56
2023-03-03T18:14:59.988Z,959.61
2023-03-03T18:16:11.073Z,959.51
2023-03-03T18:17:08.673Z,959.46
2023-03-03T18:18:01.666Z,959.53
2023-03-03T18:18:59.967Z,959.68
2023-03-03T18:20:01.949Z,959.67
2023-03-03T18:20:59.922Z,959.60
2023-03-03T18:22:03.473Z,959.68
2023-03-03T18:23:02.412Z,959.70
2023-03-03T18:24:03.143Z,959.76
2023-03-03T18:25:02.728Z,959.83
2023-03-03T18:26:00.105Z,959.95
2023-03-03T18:27:00.062Z,959.93
2023-03-03T18:28:00.122Z,960.01
2023-03-03T18:29:09.221Z,959.93
2023-03-03T18:30:00.217Z,959.94
2023-03-03T18:31:00.132Z,959.87
2023-03-03T18:32:00.165Z,959.98
2023-03-03T18:33:00.049Z,960.02
2023-03-03T18:34:00.021Z,960.07
2023-03-03T18:35:02.104Z,960.08
2023-03-03T18:36:00.227Z,960.07
2023-03-03T18:37:00.128Z,960.04
2023-03-03T18:38:00.140Z,960.00
2023-03-03T18:39:00.032Z,960.03
2023-03-03T18:40:00.153Z,960.09
2023-03-03T18:40:59.997Z,960.19
2023-03-03T18:42:00.016Z,960.24
2023-03-03T18:43:00.130Z,960.21
2023-03-03T18:44:00.058Z,960.29
2023-03-03T18:45:00.136Z,960.37
2023-03-03T18:46:00.053Z,960.44
2023-03-03T18:47:00.114Z,960.45
2023-03-03T18:48:00.015Z,960.47
2023-03-03T18:49:00.111Z,960.43
2023-03-03T18:50:00.107Z,960.43
2023-03-03T18:51:00.331Z,960.45
2023-03-03T18:52:00.515Z,960.47
2023-03-03T18:53:00.199Z,960.55
2023-03-03T18:54:00.211Z,960.64
2023-03-03T18:55:00.245Z,960.65
2023-03-03T18:56:00.257Z,960.61
2023-03-03T18:57:00.427Z,960.62
2023-03-03T18:58:00.266Z,960.63
2023-03-03T18:59:00.262Z,960.55
2023-03-03T19:00:00.392Z,960.59
2023-03-03T19:01:00.424Z,960.72
2023-03-03T19:02:00.350Z,960.76
2023-03-03T19:03:00.450Z,960.75
2023-03-03T19:04:02.393Z,960.89
2023-03-03T19:05:00.547Z,960.92
2023-03-03T19:06:00.499Z,960.93
2023-03-03T19:07:00.582Z,960.92
2023-03-03T19:08:00.597Z,960.98
2023-03-03T19:09:02.937Z,960.96
2023-03-03T19:10:00.707Z,960.89
2023-03-03T19:11:00.753Z,960.88
2023-03-03T19:12:00.664Z,960.82
2023-03-03T19:13:00.673Z,960.88
2023-03-03T19:14:00.576Z,960.95
2023-03-03T19:15:00.679Z,960.99
2023-03-03T19:16:00.865Z,960.92
2023-03-03T19:17:00.673Z,960.95
2023-03-03T19:18:00.830Z,960.91
2023-03-03T19:19:00.841Z,960.89
2023-03-03T19:20:00.879Z,961.03
2023-03-03T19:21:00.884Z,961.02
2023-03-03T19:22:00.906Z,960.99
2023-03-03T19:23:00.862Z,961.07
2023-03-03T19:24:01.094Z,961.09
2023-03-03T19:25:00.949Z,961.04
2023-03-03T19:26:00.965Z,961.12
2023-03-03T19:27:01.063Z,961.11
2023-03-03T19:28:01.014Z,961.00
2023-03-03T19:29:01.088Z,961.05
2023-03-03T19:30:01.099Z,960.97
2023-03-03T19:31:01.167Z,960.92
2023-03-03T19:32:01.100Z,960.86
2023-03-03T19:33:01.181Z,960.81
2023-03-03T19:34:01.230Z,960.71
2023-03-03T19:35:01.181Z,960.58
2023-03-03T19:36:01.283Z,960.45
2023-03-03T19:37:01.570Z,960.51
2023-03-03T19:38:01.344Z,960.33
2023-03-03T19:39:01.403Z,960.32
2023-03-03T19:40:01.397Z,960.42
2023-03-03T19:41:01.692Z,960.51
2023-03-03T19:42:01.416Z,960.39
2023-03-03T19:43:01.297Z,960.35
2023-03-03T19:44:01.392Z,960.23
2023-03-03T19:45:01.556Z,960.27
